sensor_id;sensor_type;location;lat;lon;timestamp;pressure;altitude;pressure_sealevel;temperature;humidity
50859;BME280;36826;47.514;19.056;2023-05-13T00:02:24;100517.56;;;27.27;40.32
50859;BME280;36826;47.514;19.056;2023-05-13T00:04:50;100515.13;;;25.54;42.75
50859;BME280;36826;47.514;19.056;2023-05-13T00:07:16;100516.81;;;24.79;42.59
50859;BME280;36826;47.514;19.056;2023-05-13T00:09:43;100526.88;;;24.54;43.67
50859;BME280;36826;47.514;19.056;2023-05-13T00:12:10;100517.78;;;25.98;41.89
50859;BME280;36826;47.514;19.056;2023-05-13T00:14:35;100519.16;;;25.70;41.54
50859;BME280;36826;47.514;19.056;2023-05-13T00:17:01;100528.53;;;23.37;46.33
50859;BME280;36826;47.514;19.056;2023-05-13T00:19:29;100513.41;;;23.21;48.20
50859;BME280;36826;47.514;19.056;2023-05-13T00:21:55;100517.38;;;24.88;44.56
50859;BME280;36826;47.514;19.056;2023-05-13T00:24:20;100516.47;;;24.69;46.33
50859;BME280;36826;47.514;19.056;2023-05-13T00:27:04;100520.91;;;23.66;45.88
50859;BME280;36826;47.514;19.056;2023-05-13T00:29:32;100516.38;;;24.83;47.56
50859;BME280;36826;47.514;19.056;2023-05-13T00:31:57;100528.97;;;23.20;49.15
50859;BME280;36826;47.514;19.056;2023-05-13T00:34:23;100521.03;;;25.07;45.06
50859;BME280;36826;47.514;19.056;2023-05-13T00:36:48;100531.03;;;23.18;49.99
50859;BME280;36826;47.514;19.056;2023-05-13T00:39:14;100523.84;;;23.57;46.64
50859;BME280;36826;47.514;19.056;2023-05-13T00:41:40;100528.91;;;23.60;47.14
50859;BME280;36826;47.514;19.056;2023-05-13T00:44:09;100527.91;;;23.21;47.96
50859;BME280;36826;47.514;19.056;2023-05-13T00:46:36;100528.53;;;23.30;47.03
50859;BME280;36826;47.514;19.056;2023-05-13T00:49:03;100531.25;;;22.96;63.05
50859;BME280;36826;47.514;19.056;2023-05-13T00:51:30;100527.53;;;21.52;66.49
50859;BME280;36826;47.514;19.056;2023-05-13T00:53:58;100524.34;;;23.27;53.18
50859;BME280;36826;47.514;19.056;2023-05-13T00:56:24;100533.53;;;22.73;48.76
50859;BME280;36826;47.514;19.056;2023-05-13T00:58:52;100533.47;;;22.46;48.85
50859;BME280;36826;47.514;19.056;2023-05-13T01:09:24;100543.00;;;22.15;51.36
50859;BME280;36826;47.514;19.056;2023-05-13T01:11:54;100539.84;;;21.12;53.32
50859;BME280;36826;47.514;19.056;2023-05-13T01:14:31;100534.59;;;22.78;50.78
50859;BME280;36826;47.514;19.056;2023-05-13T01:17:01;100532.59;;;22.38;49.70
50859;BME280;36826;47.514;19.056;2023-05-13T01:19:43;100542.97;;;22.50;49.92
50859;BME280;36826;47.514;19.056;2023-05-13T01:22:17;100544.41;;;22.46;50.37
50859;BME280;36826;47.514;19.056;2023-05-13T01:24:42;100538.47;;;22.35;51.07
50859;BME280;36826;47.514;19.056;2023-05-13T01:27:11;100541.22;;;21.87;53.88
50859;BME280;36826;47.514;19.056;2023-05-13T01:29:38;100540.56;;;22.33;53.57
50859;BME280;36826;47.514;19.056;2023-05-13T01:32:06;100544.25;;;21.70;52.17
50859;BME280;36826;47.514;19.056;2023-05-13T01:34:37;100535.28;;;21.76;51.01
50859;BME280;36826;47.514;19.056;2023-05-13T01:37:03;100543.13;;;21.93;50.72
50859;BME280;36826;47.514;19.056;2023-05-13T01:39:31;100542.34;;;22.61;49.30
50859;BME280;36826;47.514;19.056;2023-05-13T01:41:57;100539.44;;;22.83;49.34
50859;BME280;36826;47.514;19.056;2023-05-13T01:44:24;100543.41;;;22.74;49.88
50859;BME280;36826;47.514;19.056;2023-05-13T01:46:50;100539.50;;;22.34;49.98
50859;BME280;36826;47.514;19.056;2023-05-13T01:49:17;100535.97;;;21.57;49.74
50859;BME280;36826;47.514;19.056;2023-05-13T01:51:43;100545.38;;;21.83;49.83
50859;BME280;36826;47.514;19.056;2023-05-13T01:54:08;100545.25;;;22.53;49.55
50859;BME280;36826;47.514;19.056;2023-05-13T01:56:34;100545.84;;;21.93;49.45
50859;BME280;36826;47.514;19.056;2023-05-13T01:59:00;100544.03;;;22.62;49.64
50859;BME280;36826;47.514;19.056;2023-05-13T02:01:25;100539.53;;;21.86;50.80
50859;BME280;36826;47.514;19.056;2023-05-13T02:03:58;100541.19;;;21.80;51.20
50859;BME280;36826;47.514;19.056;2023-05-13T02:06:25;100542.94;;;22.01;50.27
50859;BME280;36826;47.514;19.056;2023-05-13T02:08:52;100546.34;;;21.68;51.38
50859;BME280;36826;47.514;19.056;2023-05-13T02:11:37;100540.59;;;21.28;51.89
50859;BME280;36826;47.514;19.056;2023-05-13T02:14:15;100543.38;;;21.98;50.16
50859;BME280;36826;47.514;19.056;2023-05-13T02:16:41;100546.84;;;21.00;51.33
50859;BME280;36826;47.514;19.056;2023-05-13T02:19:15;100540.97;;;20.96;51.59
50859;BME280;36826;47.514;19.056;2023-05-13T02:21:49;100550.22;;;21.02;51.49
50859;BME280;36826;47.514;19.056;2023-05-13T02:27:03;100546.34;;;20.90;50.92
50859;BME280;36826;47.514;19.056;2023-05-13T02:29:41;100539.63;;;22.06;51.07
50859;BME280;36826;47.514;19.056;2023-05-13T02:32:15;100540.97;;;21.82;53.19
50859;BME280;36826;47.514;19.056;2023-05-13T02:35:04;100556.50;;;20.59;53.65
50859;BME280;36826;47.514;19.056;2023-05-13T02:37:37;100547.41;;;20.15;55.20
50859;BME280;36826;47.514;19.056;2023-05-13T02:40:10;100548.22;;;20.31;54.28
50859;BME280;36826;47.514;19.056;2023-05-13T02:42:44;100555.94;;;20.85;53.18
50859;BME280;36826;47.514;19.056;2023-05-13T02:45:19;100547.72;;;21.00;51.25
50859;BME280;36826;47.514;19.056;2023-05-13T02:48:08;100552.47;;;21.77;52.32
50859;BME280;36826;47.514;19.056;2023-05-13T02:50:54;100552.25;;;21.43;52.68
50859;BME280;36826;47.514;19.056;2023-05-13T02:53:37;100555.03;;;21.00;53.22
50859;BME280;36826;47.514;19.056;2023-05-13T02:56:10;100554.78;;;20.21;55.60
50859;BME280;36826;47.514;19.056;2023-05-13T03:01:58;100556.59;;;21.66;52.80
50859;BME280;36826;47.514;19.056;2023-05-13T03:04:32;100553.84;;;22.01;50.82
50859;BME280;36826;47.514;19.056;2023-05-13T03:07:06;100556.84;;;21.71;50.86
50859;BME280;36826;47.514;19.056;2023-05-13T03:09:39;100559.81;;;20.98;51.72
50859;BME280;36826;47.514;19.056;2023-05-13T03:12:07;100567.44;;;20.66;53.33
50859;BME280;36826;47.514;19.056;2023-05-13T03:14:44;100558.19;;;20.08;53.64
50859;BME280;36826;47.514;19.056;2023-05-13T03:17:16;100567.81;;;20.41;54.14
50859;BME280;36826;47.514;19.056;2023-05-13T03:19:44;100569.94;;;19.94;52.57
50859;BME280;36826;47.514;19.056;2023-05-13T03:22:13;100554.00;;;24.16;49.32
50859;BME280;36826;47.514;19.056;2023-05-13T03:25:08;100566.03;;;22.05;49.13
50859;BME280;36826;47.514;19.056;2023-05-13T03:27:43;100571.53;;;21.42;51.06
50859;BME280;36826;47.514;19.056;2023-05-13T03:30:18;100574.66;;;21.67;50.71
50859;BME280;36826;47.514;19.056;2023-05-13T03:33:01;100566.44;;;22.02;50.65
50859;BME280;36826;47.514;19.056;2023-05-13T03:35:33;100581.44;;;22.20;48.75
50859;BME280;36826;47.514;19.056;2023-05-13T03:38:14;100573.66;;;21.46;50.01
50859;BME280;36826;47.514;19.056;2023-05-13T03:41:03;100580.47;;;21.36;50.93
50859;BME280;36826;47.514;19.056;2023-05-13T03:43:44;100576.31;;;22.03;49.25
50859;BME280;36826;47.514;19.056;2023-05-13T03:46:37;100585.53;;;20.37;52.15
50859;BME280;36826;47.514;19.056;2023-05-13T03:49:16;100589.97;;;20.60;53.42
50859;BME280;36826;47.514;19.056;2023-05-13T03:55:03;100588.06;;;25.99;42.35
50859;BME280;36826;47.514;19.056;2023-05-13T03:58:09;100594.38;;;24.73;45.34
50859;BME280;36826;47.514;19.056;2023-05-13T04:01:18;100596.84;;;23.50;44.54
50859;BME280;36826;47.514;19.056;2023-05-13T04:03:56;100594.00;;;22.70;46.78
50859;BME280;36826;47.514;19.056;2023-05-13T04:06:33;100598.75;;;23.29;46.19
50859;BME280;36826;47.514;19.056;2023-05-13T04:09:12;100600.00;;;23.47;45.40
50859;BME280;36826;47.514;19.056;2023-05-13T04:12:13;100596.81;;;22.34;47.49
50859;BME280;36826;47.514;19.056;2023-05-13T04:15:01;100607.16;;;23.48;45.46
50859;BME280;36826;47.514;19.056;2023-05-13T04:20:56;100609.16;;;22.65;50.99
50859;BME280;36826;47.514;19.056;2023-05-13T04:23:48;100607.72;;;22.96;47.05
50859;BME280;36826;47.514;19.056;2023-05-13T04:26:58;100611.88;;;22.72;47.79
50859;BME280;36826;47.514;19.056;2023-05-13T04:29:29;100620.50;;;21.13;48.78
50859;BME280;36826;47.514;19.056;2023-05-13T04:32:02;100612.00;;;22.44;48.67
50859;BME280;36826;47.514;19.056;2023-05-13T04:34:31;100616.56;;;22.36;48.27
50859;BME280;36826;47.514;19.056;2023-05-13T04:37:14;100610.75;;;23.28;46.16
50859;BME280;36826;47.514;19.056;2023-05-13T04:39:49;100627.22;;;21.89;48.51
50859;BME280;36826;47.514;19.056;2023-05-13T04:42:31;100625.03;;;22.48;47.50
50859;BME280;36826;47.514;19.056;2023-05-13T04:45:36;100622.91;;;23.46;47.11
50859;BME280;36826;47.514;19.056;2023-05-13T04:48:13;100622.59;;;21.90;49.26
50859;BME280;36826;47.514;19.056;2023-05-13T04:50:46;100622.25;;;23.84;46.60
50859;BME280;36826;47.514;19.056;2023-05-13T04:53:44;100623.56;;;23.48;46.04
50859;BME280;36826;47.514;19.056;2023-05-13T04:56:13;100622.72;;;23.54;46.63
50859;BME280;36826;47.514;19.056;2023-05-13T04:59:07;100632.44;;;22.61;47.16
50859;BME280;36826;47.514;19.056;2023-05-13T05:01:38;100623.13;;;23.78;45.89
50859;BME280;36826;47.514;19.056;2023-05-13T05:04:13;100631.97;;;23.80;46.16
50859;BME280;36826;47.514;19.056;2023-05-13T05:07:17;100631.97;;;23.67;45.30
50859;BME280;36826;47.514;19.056;2023-05-13T05:09:51;100641.16;;;23.12;47.45
50859;BME280;36826;47.514;19.056;2023-05-13T05:12:19;100639.31;;;23.39;47.01
50859;BME280;36826;47.514;19.056;2023-05-13T05:15:04;100640.94;;;24.66;44.98
50859;BME280;36826;47.514;19.056;2023-05-13T05:17:46;100643.75;;;24.99;44.13
50859;BME280;36826;47.514;19.056;2023-05-13T05:20:42;100647.94;;;24.69;43.68
50859;BME280;36826;47.514;19.056;2023-05-13T05:26:16;100648.47;;;22.85;46.98
50859;BME280;36826;47.514;19.056;2023-05-13T05:35:05;100650.88;;;23.55;45.63
50859;BME280;36826;47.514;19.056;2023-05-13T05:37:33;100651.09;;;22.51;48.38
50859;BME280;36826;47.514;19.056;2023-05-13T05:40:00;100637.97;;;22.88;46.81
50859;BME280;36826;47.514;19.056;2023-05-13T05:42:25;100649.19;;;23.67;45.75
50859;BME280;36826;47.514;19.056;2023-05-13T05:44:51;100639.72;;;24.69;43.92
50859;BME280;36826;47.514;19.056;2023-05-13T05:47:19;100650.47;;;24.05;44.84
50859;BME280;36826;47.514;19.056;2023-05-13T05:49:44;100648.34;;;23.20;46.90
50859;BME280;36826;47.514;19.056;2023-05-13T05:52:16;100643.19;;;22.76;47.26
50859;BME280;36826;47.514;19.056;2023-05-13T05:54:46;100643.72;;;23.34;46.04
50859;BME280;36826;47.514;19.056;2023-05-13T05:57:12;100643.50;;;22.53;47.31
50859;BME280;36826;47.514;19.056;2023-05-13T05:59:38;100644.66;;;22.30;47.48
50859;BME280;36826;47.514;19.056;2023-05-13T06:02:04;100650.28;;;22.64;47.35
50859;BME280;36826;47.514;19.056;2023-05-13T06:04:31;100653.38;;;23.16;47.21
50859;BME280;36826;47.514;19.056;2023-05-13T06:06:57;100662.88;;;21.88;48.70
50859;BME280;36826;47.514;19.056;2023-05-13T06:09:23;100663.38;;;21.98;47.83
50859;BME280;36826;47.514;19.056;2023-05-13T06:11:48;100664.06;;;21.79;48.72
50859;BME280;36826;47.514;19.056;2023-05-13T06:14:15;100670.03;;;21.96;48.04
50859;BME280;36826;47.514;19.056;2023-05-13T06:16:41;100665.09;;;22.06;47.27
50859;BME280;36826;47.514;19.056;2023-05-13T06:19:06;100659.53;;;22.70;46.79
50859;BME280;36826;47.514;19.056;2023-05-13T06:21:32;100676.47;;;21.38;48.30
50859;BME280;36826;47.514;19.056;2023-05-13T06:23:58;100675.53;;;22.02;47.10
50859;BME280;36826;47.514;19.056;2023-05-13T06:26:25;100660.97;;;22.52;47.05
50859;BME280;36826;47.514;19.056;2023-05-13T06:28:50;100667.47;;;22.22;47.20
50859;BME280;36826;47.514;19.056;2023-05-13T06:31:16;100674.19;;;22.55;47.60
50859;BME280;36826;47.514;19.056;2023-05-13T06:33:43;100678.69;;;22.83;46.53
50859;BME280;36826;47.514;19.056;2023-05-13T06:36:09;100667.84;;;23.03;46.60
50859;BME280;36826;47.514;19.056;2023-05-13T06:38:36;100675.03;;;22.56;46.29
50859;BME280;36826;47.514;19.056;2023-05-13T06:41:02;100671.50;;;23.57;45.66
50859;BME280;36826;47.514;19.056;2023-05-13T06:43:27;100679.19;;;22.45;46.79
50859;BME280;36826;47.514;19.056;2023-05-13T06:45:53;100684.47;;;22.18;47.66
50859;BME280;36826;47.514;19.056;2023-05-13T06:48:20;100669.59;;;23.24;47.25
50859;BME280;36826;47.514;19.056;2023-05-13T06:50:45;100675.88;;;22.56;46.14
50859;BME280;36826;47.514;19.056;2023-05-13T06:53:11;100679.69;;;22.68;46.56
50859;BME280;36826;47.514;19.056;2023-05-13T06:55:37;100682.94;;;22.09;47.54
50859;BME280;36826;47.514;19.056;2023-05-13T06:58:06;100668.56;;;22.63;47.40
50859;BME280;36826;47.514;19.056;2023-05-13T07:00:38;100668.13;;;22.66;46.67
50859;BME280;36826;47.514;19.056;2023-05-13T07:03:05;100667.63;;;22.91;46.33
50859;BME280;36826;47.514;19.056;2023-05-13T07:05:31;100667.19;;;23.01;47.71
50859;BME280;36826;47.514;19.056;2023-05-13T07:07:57;100679.19;;;22.45;47.74
50859;BME280;36826;47.514;19.056;2023-05-13T07:10:23;100679.59;;;22.48;47.11
50859;BME280;36826;47.514;19.056;2023-05-13T07:12:49;100671.44;;;23.17;46.47
50859;BME280;36826;47.514;19.056;2023-05-13T07:15:14;100692.06;;;21.66;48.39
50859;BME280;36826;47.514;19.056;2023-05-13T07:17:41;100670.69;;;21.69;48.44
50859;BME280;36826;47.514;19.056;2023-05-13T07:20:07;100677.50;;;22.44;47.47
50859;BME280;36826;47.514;19.056;2023-05-13T07:22:34;100680.44;;;21.35;49.30
50859;BME280;36826;47.514;19.056;2023-05-13T07:24:59;100663.91;;;23.86;44.95
50859;BME280;36826;47.514;19.056;2023-05-13T07:27:25;100674.41;;;21.40;48.09
50859;BME280;36826;47.514;19.056;2023-05-13T07:29:51;100664.88;;;22.43;47.03
50859;BME280;36826;47.514;19.056;2023-05-13T07:32:16;100683.78;;;20.94;49.41
50859;BME280;36826;47.514;19.056;2023-05-13T07:34:42;100678.09;;;21.54;49.39
50859;BME280;36826;47.514;19.056;2023-05-13T07:37:08;100684.00;;;22.43;48.06
50859;BME280;36826;47.514;19.056;2023-05-13T07:39:33;100684.97;;;21.71;48.78
50859;BME280;36826;47.514;19.056;2023-05-13T07:41:59;100692.50;;;21.69;48.19
50859;BME280;36826;47.514;19.056;2023-05-13T07:44:25;100691.94;;;22.37;48.31
50859;BME280;36826;47.514;19.056;2023-05-13T07:46:51;100682.38;;;21.85;48.40
50859;BME280;36826;47.514;19.056;2023-05-13T07:49:18;100691.59;;;22.19;47.17
50859;BME280;36826;47.514;19.056;2023-05-13T07:51:44;100684.75;;;22.72;47.12
50859;BME280;36826;47.514;19.056;2023-05-13T07:54:09;100695.50;;;22.80;45.49
50859;BME280;36826;47.514;19.056;2023-05-13T07:56:35;100690.75;;;23.09;46.62
50859;BME280;36826;47.514;19.056;2023-05-13T07:59:02;100698.81;;;21.98;47.73
50859;BME280;36826;47.514;19.056;2023-05-13T08:01:27;100698.34;;;22.23;48.11
50859;BME280;36826;47.514;19.056;2023-05-13T08:03:53;100698.59;;;22.63;47.51
50859;BME280;36826;47.514;19.056;2023-05-13T08:06:18;100702.31;;;22.20;46.28
50859;BME280;36826;47.514;19.056;2023-05-13T08:08:44;100705.03;;;21.64;48.10
50859;BME280;36826;47.514;19.056;2023-05-13T08:11:09;100716.38;;;21.67;48.09
50859;BME280;36826;47.514;19.056;2023-05-13T08:13:35;100720.47;;;20.98;49.38
50859;BME280;36826;47.514;19.056;2023-05-13T08:16:01;100718.69;;;21.92;48.45
50859;BME280;36826;47.514;19.056;2023-05-13T08:18:28;100720.75;;;22.12;47.12
50859;BME280;36826;47.514;19.056;2023-05-13T08:20:53;100725.88;;;22.57;45.85
50859;BME280;36826;47.514;19.056;2023-05-13T08:23:19;100729.34;;;22.86;46.04
50859;BME280;36826;47.514;19.056;2023-05-13T08:25:44;100726.16;;;23.44;45.06
50859;BME280;36826;47.514;19.056;2023-05-13T08:28:12;100722.34;;;22.34;46.92
50859;BME280;36826;47.514;19.056;2023-05-13T08:30:38;100728.72;;;23.79;45.14
50859;BME280;36826;47.514;19.056;2023-05-13T08:33:09;100725.78;;;23.74;44.61
50859;BME280;36826;47.514;19.056;2023-05-13T08:35:35;100740.63;;;22.05;46.82
50859;BME280;36826;47.514;19.056;2023-05-13T08:38:01;100735.50;;;23.01;46.22
50859;BME280;36826;47.514;19.056;2023-05-13T08:40:30;100740.25;;;23.34;45.58
50859;BME280;36826;47.514;19.056;2023-05-13T08:42:59;100739.38;;;23.27;46.12
50859;BME280;36826;47.514;19.056;2023-05-13T08:45:28;100744.03;;;22.78;46.54
50859;BME280;36826;47.514;19.056;2023-05-13T08:50:19;100729.72;;;22.76;46.29
50859;BME280;36826;47.514;19.056;2023-05-13T08:52:46;100739.06;;;22.95;46.41
50859;BME280;36826;47.514;19.056;2023-05-13T08:55:11;100732.72;;;22.46;46.64
50859;BME280;36826;47.514;19.056;2023-05-13T08:57:37;100738.16;;;23.36;45.65
50859;BME280;36826;47.514;19.056;2023-05-13T09:00:04;100736.00;;;22.70;47.15
50859;BME280;36826;47.514;19.056;2023-05-13T09:02:30;100734.94;;;22.35;45.97
50859;BME280;36826;47.514;19.056;2023-05-13T09:04:57;100734.34;;;23.44;45.46
50859;BME280;36826;47.514;19.056;2023-05-13T09:07:24;100730.41;;;22.85;46.31
50859;BME280;36826;47.514;19.056;2023-05-13T09:09:50;100727.84;;;23.45;44.14
50859;BME280;36826;47.514;19.056;2023-05-13T09:15:17;100734.22;;;24.13;43.60
50859;BME280;36826;47.514;19.056;2023-05-13T09:17:44;100738.59;;;23.53;44.81
50859;BME280;36826;47.514;19.056;2023-05-13T09:20:12;100734.34;;;23.44;44.76
50859;BME280;36826;47.514;19.056;2023-05-13T09:25:11;100739.00;;;23.50;46.12
50859;BME280;36826;47.514;19.056;2023-05-13T09:27:39;100736.72;;;24.08;43.83
50859;BME280;36826;47.514;19.056;2023-05-13T09:30:06;100727.84;;;24.39;45.32
50859;BME280;36826;47.514;19.056;2023-05-13T09:32:32;100724.91;;;23.40;45.13
50859;BME280;36826;47.514;19.056;2023-05-13T09:35:07;100733.94;;;22.15;47.42
50859;BME280;36826;47.514;19.056;2023-05-13T09:37:34;100734.81;;;23.48;45.19
50859;BME280;36826;47.514;19.056;2023-05-13T09:39:59;100730.97;;;22.73;45.59
50859;BME280;36826;47.514;19.056;2023-05-13T09:42:25;100737.88;;;24.65;43.79
50859;BME280;36826;47.514;19.056;2023-05-13T09:44:50;100736.53;;;24.95;42.61
50859;BME280;36826;47.514;19.056;2023-05-13T09:47:16;100740.13;;;25.92;42.80
50859;BME280;36826;47.514;19.056;2023-05-13T09:49:55;100732.91;;;23.41;43.38
50859;BME280;36826;47.514;19.056;2023-05-13T09:52:21;100738.38;;;24.42;43.82
50859;BME280;36826;47.514;19.056;2023-05-13T09:54:47;100738.16;;;24.37;45.09
50859;BME280;36826;47.514;19.056;2023-05-13T09:57:13;100735.28;;;24.05;44.61
50859;BME280;36826;47.514;19.056;2023-05-13T09:59:39;100731.94;;;22.52;47.33
50859;BME280;36826;47.514;19.056;2023-05-13T10:02:06;100733.38;;;23.99;43.38
50859;BME280;36826;47.514;19.056;2023-05-13T10:04:33;100719.69;;;24.12;43.62
50859;BME280;36826;47.514;19.056;2023-05-13T10:07:01;100725.34;;;23.64;43.96
50859;BME280;36826;47.514;19.056;2023-05-13T10:09:30;100727.69;;;23.87;43.11
50859;BME280;36826;47.514;19.056;2023-05-13T10:11:58;100729.44;;;23.19;45.60
50859;BME280;36826;47.514;19.056;2023-05-13T10:14:24;100714.00;;;23.47;44.35
50859;BME280;36826;47.514;19.056;2023-05-13T10:16:50;100721.97;;;23.48;42.72
50859;BME280;36826;47.514;19.056;2023-05-13T10:19:17;100714.31;;;22.55;45.60
50859;BME280;36826;47.514;19.056;2023-05-13T10:21:43;100726.13;;;22.33;45.41
50859;BME280;36826;47.514;19.056;2023-05-13T10:24:08;100717.53;;;22.72;44.65
50859;BME280;36826;47.514;19.056;2023-05-13T10:26:34;100724.31;;;23.92;43.70
50859;BME280;36826;47.514;19.056;2023-05-13T10:29:01;100715.03;;;24.92;42.62
50859;BME280;36826;47.514;19.056;2023-05-13T10:31:27;100717.50;;;25.39;41.87
50859;BME280;36826;47.514;19.056;2023-05-13T10:33:53;100713.78;;;24.88;41.16
50859;BME280;36826;47.514;19.056;2023-05-13T10:36:25;100720.38;;;24.73;43.27
50859;BME280;36826;47.514;19.056;2023-05-13T10:44:42;100730.81;;;23.64;42.44
50859;BME280;36826;47.514;19.056;2023-05-13T10:47:08;100715.13;;;23.04;43.21
50859;BME280;36826;47.514;19.056;2023-05-13T10:49:35;100719.41;;;24.34;42.76
50859;BME280;36826;47.514;19.056;2023-05-13T10:52:05;100725.97;;;24.33;41.83
50859;BME280;36826;47.514;19.056;2023-05-13T10:54:39;100711.78;;;25.40;40.13
50859;BME280;36826;47.514;19.056;2023-05-13T10:57:09;100718.19;;;24.30;41.29
50859;BME280;36826;47.514;19.056;2023-05-13T10:59:34;100710.44;;;25.56;39.22
50859;BME280;36826;47.514;19.056;2023-05-13T11:02:02;100712.75;;;24.82;40.48
50859;BME280;36826;47.514;19.056;2023-05-13T11:04:59;100713.78;;;23.75;42.35
50859;BME280;36826;47.514;19.056;2023-05-13T11:07:28;100712.16;;;24.66;41.91
50859;BME280;36826;47.514;19.056;2023-05-13T11:09:53;100714.84;;;23.74;42.50
50859;BME280;36826;47.514;19.056;2023-05-13T11:12:19;100718.09;;;24.63;40.83
50859;BME280;36826;47.514;19.056;2023-05-13T11:14:44;100719.44;;;23.33;42.63
50859;BME280;36826;47.514;19.056;2023-05-13T11:17:10;100719.91;;;22.88;43.33
50859;BME280;36826;47.514;19.056;2023-05-13T11:19:38;100715.41;;;22.67;45.08
50859;BME280;36826;47.514;19.056;2023-05-13T11:22:14;100715.84;;;24.40;40.94
50859;BME280;36826;47.514;19.056;2023-05-13T11:24:40;100708.75;;;22.06;45.67
50859;BME280;36826;47.514;19.056;2023-05-13T11:27:19;100706.16;;;23.23;42.77
50859;BME280;36826;47.514;19.056;2023-05-13T11:29:49;100717.13;;;24.24;40.65
50859;BME280;36826;47.514;19.056;2023-05-13T11:35:23;100715.88;;;23.53;42.19
50859;BME280;36826;47.514;19.056;2023-05-13T11:37:49;100713.84;;;24.74;40.31
50859;BME280;36826;47.514;19.056;2023-05-13T11:40:22;100712.50;;;23.71;42.38
50859;BME280;36826;47.514;19.056;2023-05-13T11:42:48;100714.03;;;24.07;41.05
50859;BME280;36826;47.514;19.056;2023-05-13T11:45:16;100715.69;;;23.68;42.79
50859;BME280;36826;47.514;19.056;2023-05-13T11:47:41;100709.38;;;24.14;40.29
50859;BME280;36826;47.514;19.056;2023-05-13T11:50:27;100707.22;;;26.36;37.34
50859;BME280;36826;47.514;19.056;2023-05-13T11:52:58;100711.03;;;26.34;37.66
50859;BME280;36826;47.514;19.056;2023-05-13T11:55:28;100726.16;;;25.42;38.52
50859;BME280;36826;47.514;19.056;2023-05-13T11:57:54;100720.44;;;24.46;39.49
50859;BME280;36826;47.514;19.056;2023-05-13T12:00:24;100720.25;;;24.41;39.08
50859;BME280;36826;47.514;19.056;2023-05-13T12:02:50;100718.63;;;23.73;41.39
50859;BME280;36826;47.514;19.056;2023-05-13T12:05:16;100725.09;;;23.38;41.51
50859;BME280;36826;47.514;19.056;2023-05-13T12:07:41;100732.88;;;23.35;41.54
50859;BME280;36826;47.514;19.056;2023-05-13T12:10:07;100717.56;;;23.87;40.77
50859;BME280;36826;47.514;19.056;2023-05-13T12:12:36;100717.34;;;24.09;39.79
50859;BME280;36826;47.514;19.056;2023-05-13T12:15:06;100711.84;;;24.36;39.99
50859;BME280;36826;47.514;19.056;2023-05-13T12:17:33;100720.56;;;24.78;38.62
50859;BME280;36826;47.514;19.056;2023-05-13T12:20:12;100720.78;;;24.84;38.51
50859;BME280;36826;47.514;19.056;2023-05-13T12:25:46;100728.56;;;24.80;39.17
50859;BME280;36826;47.514;19.056;2023-05-13T12:28:23;100719.66;;;24.26;41.38
50859;BME280;36826;47.514;19.056;2023-05-13T12:30:49;100732.94;;;23.75;40.68
50859;BME280;36826;47.514;19.056;2023-05-13T12:33:17;100727.38;;;24.56;39.93
50859;BME280;36826;47.514;19.056;2023-05-13T12:35:46;100718.84;;;24.91;39.04
50859;BME280;36826;47.514;19.056;2023-05-13T12:38:17;100731.56;;;24.65;39.97
50859;BME280;36826;47.514;19.056;2023-05-13T12:40:44;100730.81;;;25.35;38.47
50859;BME280;36826;47.514;19.056;2023-05-13T12:43:10;100731.94;;;25.27;38.44
50859;BME280;36826;47.514;19.056;2023-05-13T12:45:38;100730.09;;;25.15;38.70
50859;BME280;36826;47.514;19.056;2023-05-13T12:48:04;100732.94;;;24.94;38.89
50859;BME280;36826;47.514;19.056;2023-05-13T12:50:30;100729.34;;;24.21;40.85
50859;BME280;36826;47.514;19.056;2023-05-13T12:52:55;100735.03;;;23.86;40.29
50859;BME280;36826;47.514;19.056;2023-05-13T12:55:25;100725.16;;;24.91;39.25
50859;BME280;36826;47.514;19.056;2023-05-13T12:58:01;100725.44;;;25.22;38.39
50859;BME280;36826;47.514;19.056;2023-05-13T13:00:28;100729.16;;;24.89;38.98
50859;BME280;36826;47.514;19.056;2023-05-13T13:02:55;100713.72;;;25.40;38.92
50859;BME280;36826;47.514;19.056;2023-05-13T13:05:21;100718.25;;;25.21;39.59
50859;BME280;36826;47.514;19.056;2023-05-13T13:07:47;100720.63;;;24.58;40.34
50859;BME280;36826;47.514;19.056;2023-05-13T13:10:13;100726.44;;;24.82;39.92
50859;BME280;36826;47.514;19.056;2023-05-13T13:12:39;100727.59;;;24.47;40.11
50859;BME280;36826;47.514;19.056;2023-05-13T13:15:06;100726.72;;;25.51;38.58
50859;BME280;36826;47.514;19.056;2023-05-13T13:17:31;100732.06;;;24.28;40.36
50859;BME280;36826;47.514;19.056;2023-05-13T13:19:57;100736.59;;;24.68;39.33
50859;BME280;36826;47.514;19.056;2023-05-13T13:22:22;100728.06;;;24.38;40.12
50859;BME280;36826;47.514;19.056;2023-05-13T13:24:48;100723.25;;;24.26;40.16
50859;BME280;36826;47.514;19.056;2023-05-13T13:27:13;100713.16;;;25.24;38.37
50859;BME280;36826;47.514;19.056;2023-05-13T13:29:39;100714.84;;;24.87;39.22
50859;BME280;36826;47.514;19.056;2023-05-13T13:32:05;100716.97;;;25.23;38.15
50859;BME280;36826;47.514;19.056;2023-05-13T13:34:31;100710.94;;;26.41;35.97
50859;BME280;36826;47.514;19.056;2023-05-13T13:36:56;100715.97;;;25.50;37.83
50859;BME280;36826;47.514;19.056;2023-05-13T13:39:22;100710.00;;;26.10;37.66
50859;BME280;36826;47.514;19.056;2023-05-13T13:41:47;100714.34;;;25.42;39.29
50859;BME280;36826;47.514;19.056;2023-05-13T13:44:13;100711.56;;;25.10;39.02
50859;BME280;36826;47.514;19.056;2023-05-13T13:46:38;100726.69;;;25.19;38.99